Date,TemperatureHighF,TemperatureAvgF,TemperatureLowF,DewpointHighF,DewpointAvgF,DewpointLowF,HumidityHigh,HumidityAvg,HumidityLow,PressureMaxIn,PressureMinIn,WindSpeedMaxMPH,WindSpeedAvgMPH,GustSpeedMaxMPH,PrecipitationSumIn
2013-1-1,40,38,34,38,36,31,94,92,85,30.23,30.05,6,1,8,0.06
2013-1-2,37,32,23,33,28,21,92,87,73,30.31,30.22,8,2,11,0.00
2013-1-3,45,29,19,31,24,16,92,82,55,30.46,30.30,11,1,13,0.00
2013-1-4,44,30,19,30,24,17,92,80,50,30.52,30.36,10,1,11,0.01
2013-1-5,49,36,26,34,30,24,92,78,51,30.38,30.21,10,1,11,0.00
2013-1-6,53,36,25,35,27,21,93,73,37,30.39,30.25,13,2,17,0.00
2013-1-7,49,33,19,30,24,17,91,72,38,30.41,30.18,12,2,15,0.00
2013-1-8,54,40,26,44,33,23,93,76,49,30.23,30.09,11,2,13,0.38
2013-1-9,59,51,46,51,47,43,94,86,67,30.32,30.19,11,2,13,0.20
2013-1-10,60,54,42,57,51,40,94,91,87,30.21,29.84,13,4,17,0.32
2013-1-11,66,50,35,50,43,33,95,80,50,29.97,29.82,13,2,17,0.00
2013-1-12,59,50,38,57,48,35,94,90,83,29.91,29.68,12,2,18,0.90
2013-1-13,40,34,25,36,27,17,90,75,56,30.36,29.90,16,5,18,0.01
2013-1-14,41,28,19,19,15,10,87,62,29,30.47,30.31,13,2,18,0.00
2013-1-15,31,26,20,27,22,16,91,84,75,30.37,30.16,9,1,13,0.05
2013-1-16,45,30,19,26,21,17,92,75,33,30.25,30.11,12,2,15,0.01
2013-1-17,55,37,25,34,26,21,89,69,35,30.51,30.20,19,3,25,0.00
2013-1-18,55,36,22,32,26,19,92,71,35,30.54,30.29,11,1,13,0.01
2013-1-19,64,42,24,39,31,22,91,69,37,30.29,30.11,9,1,12,0.00
2013-1-20,59,42,27,38,31,25,93,70,32,30.28,30.13,14,1,17,0.00
2013-1-21,49,38,26,35,19,12,86,49,25,30.38,30.18,11,2,16,0.00
2013-1-22,41,31,22,21,19,17,83,64,42,30.41,30.28,12,2,15,0.00
2013-1-23,58,40,25,42,30,20,91,72,47,30.33,30.15,9,1,11,0.00
2013-1-24,48,40,32,40,25,16,90,58,39,30.36,30.19,18,7,25,0.00
2013-1-25,45,36,30,39,32,22,92,85,69,30.26,30.13,10,2,12,0.02
2013-1-26,51,41,26,36,29,24,94,65,37,30.31,30.20,14,4,20,0.00
2013-1-27,57,50,45,52,44,31,88,78,54,30.22,30.01,12,4,15,0.01
2013-1-28,71,64,56,61,59,52,90,82,71,30.05,29.90,11,3,13,0.00
2013-1-29,70,63,54,63,59,51,94,86,68,29.90,29.45,29,5,33,1.60
2013-1-30,53,40,26,51,33,23,94,75,54,30.09,29.52,28,8,38,0.01
2013-1-31,58,37,22,32,23,8,91,62,24,30.42,30.06,25,5,30,0.00
2013-2-1,40,30,21,18,10,1,63,45,23,30.51,30.26,15,4,18,0.00
2013-2-2,58,38,23,32,26,17,87,65,37,30.27,30.17,17,2,21,0.00
2013-2-3,60,41,25,35,25,17,92,62,21,30.28,30.05,16,2,20,0.00
2013-2-4,51,43,33,44,37,28,93,79,52,30.05,29.88,7,1,9,0.15
2013-2-5,62,43,32,50,39,30,94,87,58,30.07,29.95,11,1,12,0.01
2013-2-6,60,47,31,45,38,29,94,74,52,30.17,30.02,16,4,23,0.00
2013-2-7,60,54,50,54,48,42,94,82,70,30.02,29.87,17,2,20,0.40
2013-2-8,56,45,35,46,36,32,92,71,42,30.28,30.02,17,3,21,0.00
2013-2-9,44,40,36,39,34,30,90,78,67,30.29,29.96,15,7,20,0.13
2013-2-10,66,52,39,55,40,26,94,68,24,30.03,29.66,20,5,26,0.47
2013-2-11,57,43,30,34,29,25,89,62,32,30.21,30.03,11,2,15,0.00
2013-2-12,46,38,29,39,34,27,92,85,62,30.14,29.89,14,2,15,0.31
2013-2-13,52,41,31,38,35,29,92,80,52,30.07,29.93,18,3,23,0.01
2013-2-14,63,44,26,40,32,24,93,66,30,30.12,29.99,16,3,20,0.00
2013-2-15,50,42,28,35,24,15,69,51,33,30.33,30.12,21,6,24,0.00
2013-2-16,45,34,23,27,19,13,85,58,28,30.35,30.19,18,3,21,0.00
2013-2-17,63,45,31,35,27,20,74,52,28,30.19,29.92,12,3,15,0.00
2013-2-18,64,52,38,53,42,28,82,69,52,30.10,29.64,24,6,30,0.16
2013-2-19,52,40,28,29,21,16,82,50,25,30.32,30.10,21,5,28,0.00
2013-2-20,35,31,29,28,25,18,89,79,49,30.33,30.13,15,4,17,0.03
2013-2-21,34,33,31,32,29,26,93,88,81,30.13,29.75,17,4,24,0.71
2013-2-22,39,33,26,32,27,22,93,80,63,30.12,29.92,14,4,17,0.26
2013-2-23,49,34,22,31,25,19,91,75,38,30.12,29.95,13,2,17,0.00
2013-2-24,57,42,25,35,30,23,92,66,40,30.06,29.87,17,4,23,0.01
2013-2-25,54,43,32,43,36,29,93,79,45,29.87,29.40,28,5,37,0.54
2013-2-26,42,39,38,40,34,30,94,81,72,29.90,29.37,20,8,25,0.02
2013-2-27,48,40,34,35,30,26,78,68,51,30.09,29.87,23,7,32,0.00
2013-2-28,51,37,29,30,26,24,85,67,40,30.18,30.08,20,6,24,0.00
2013-3-1,41,36,31,27,22,18,73,59,47,30.27,30.16,17,8,21,0.00
2013-3-2,45,34,25,23,20,16,83,57,33,30.33,30.23,19,6,21,0.00
2013-3-3,57,40,23,31,25,19,86,58,32,30.25,29.91,16,4,20,0.00
2013-3-4,63,49,42,50,40,29,92,70,61,29.91,29.66,19,5,21,0.00
2013-3-5,52,46,39,46,27,15,94,51,25,30.31,29.74,28,10,33,0.03
2013-3-6,52,39,27,31,23,17,80,53,32,30.43,30.27,19,4,23,0.00
2013-3-7,60,47,37,32,30,27,80,54,30,30.34,30.19,17,4,23,0.00
2013-3-8,62,50,35,38,33,30,84,55,36,30.34,30.12,16,6,20,0.00
2013-3-9,69,59,49,55,44,36,68,58,45,30.12,29.75,21,6,28,0.00
2013-3-10,58,50,37,54,45,30,94,84,65,29.96,29.67,24,6,33,1.67
2013-3-11,50,40,32,31,27,22,80,62,36,30.07,29.94,18,8,24,0.00
2013-3-12,63,44,28,39,29,20,90,60,24,30.31,30.06,21,4,25,0.00
2013-3-13,58,45,28,33,21,6,82,44,14,30.47,30.31,16,3,18,0.00
2013-3-14,70,48,30,43,33,26,87,60,29,30.39,30.12,10,1,12,0.00
2013-3-15,82,59,38,51,43,36,93,61,25,30.15,29.84,18,3,25,0.00
2013-3-16,79,62,44,53,48,41,91,64,35,29.87,29.72,11,2,13,0.00
2013-3-17,65,52,46,52,45,42,92,80,55,29.87,29.69,14,5,20,0.10
2013-3-18,59,49,37,47,42,33,93,79,41,30.07,29.71,16,4,18,0.02
2013-3-19,59,46,32,38,29,19,92,58,22,30.23,30.05,12,2,15,0.00
2013-3-20,55,44,29,34,25,15,88,53,22,30.33,30.13,21,5,26,0.00
2013-3-21,44,38,35,34,24,13,89,62,31,30.13,29.87,18,6,23,0.47
2013-3-22,43,40,35,39,36,31,91,85,81,29.95,29.86,17,6,24,0.31
2013-3-23,44,42,40,42,39,36,92,88,82,29.93,29.72,12,3,15,0.40
2013-3-24,43,39,32,41,31,19,93,76,59,30.13,29.68,26,10,38,0.03
2013-3-25,40,33,27,24,21,18,79,61,47,30.35,30.12,24,8,30,0.00
2013-3-26,48,36,26,28,23,20,87,62,36,30.44,30.32,15,4,18,0.00
2013-3-27,63,43,25,34,27,22,90,60,24,30.38,30.17,16,3,21,0.00
2013-3-28,70,56,43,48,40,33,76,55,39,30.28,30.12,9,2,13,0.00
2013-3-29,63,57,52,56,52,46,93,84,71,30.21,30.11,19,2,26,0.71
2013-3-30,67,58,53,57,54,50,93,85,67,30.15,29.91,11,2,13,0.40
2013-3-31,69,59,49,56,51,46,94,77,47,29.97,29.86,10,2,12,0.03
2013-4-1,73,57,40,53,44,38,94,66,35,30.13,29.97,10,2,18,0.01
2013-4-2,54,45,39,43,36,30,91,72,49,30.25,30.12,12,4,17,0.70
2013-4-3,54,45,39,41,31,22,88,60,30,30.25,30.16,18,4,21,0.06
2013-4-4,48,45,42,43,40,34,90,82,66,30.17,30.07,9,1,11,0.17
2013-4-5,69,51,32,46,37,24,94,67,21,30.22,30.05,11,1,13,0.01
2013-4-6,78,61,46,52,44,39,81,56,27,30.06,29.82,17,3,23,0.00
2013-4-7,74,64,54,60,54,49,87,70,55,29.96,29.82,13,3,17,0.00
2013-4-8,77,68,62,62,57,55,82,70,50,29.87,29.74,13,4,17,0.00
2013-4-9,83,72,61,64,59,56,82,65,40,29.85,29.74,22,4,32,0.00
2013-4-10,76,60,43,65,52,39,91,78,66,29.88,29.69,19,5,28,0.64
2013-4-11,58,46,38,40,36,32,88,69,39,29.89,29.73,18,6,23,0.00
2013-4-12,66,49,33,42,36,30,92,66,30,30.02,29.84,16,2,21,0.00
2013-4-13,70,55,40,48,41,37,90,64,36,30.10,29.84,11,2,15,0.00
2013-4-14,81,64,47,54,48,44,91,61,30,29.86,29.57,14,3,21,0.00
2013-4-15,79,68,60,64,60,54,88,75,56,29.82,29.70,16,4,21,0.00
2013-4-16,86,74,64,67,63,60,89,71,44,29.95,29.80,12,2,15,0.00
2013-4-17,84,76,68,70,66,63,89,71,54,29.96,29.69,13,3,23,0.00
2013-4-18,78,58,44,66,49,30,91,74,58,30.00,29.59,21,8,28,0.88
2013-4-19,58,46,36,38,29,22,88,54,27,30.14,30.00,20,6,26,0.00
2013-4-20,70,52,33,45,37,30,93,62,28,30.24,30.09,11,2,12,0.00
2013-4-21,70,57,44,47,41,33,90,59,28,30.30,30.14,15,3,23,0.00
2013-4-22,75,59,39,49,42,37,92,59,28,30.22,29.92,17,2,20,0.00
2013-4-23,72,58,44,58,50,38,90,73,50,30.07,29.89,17,3,26,0.02
2013-4-24,60,48,40,40,36,29,91,67,32,30.30,30.05,18,4,20,0.30
2013-4-25,70,52,32,45,35,21,93,61,19,30.39,30.23,10,2,15,0.00
2013-4-26,59,54,51,50,46,41,92,77,55,30.30,30.15,14,3,21,0.44
2013-4-27,60,55,52,57,52,49,93,90,87,30.17,29.95,17,2,24,0.39
2013-4-28,74,61,53,58,53,48,91,77,49,30.03,29.89,10,2,12,0.01
2013-4-29,85,66,49,64,56,47,94,74,41,29.96,29.79,13,2,15,0.02
2013-4-30,83,70,54,61,53,44,94,63,25,29.90,29.81,15,2,20,0.00
2013-5-1,79,68,57,65,59,53,91,74,54,30.00,29.88,14,4,18,0.00
2013-5-2,64,57,43,62,54,40,94,90,79,30.19,30.02,9,2,18,0.22
2013-5-3,51,43,37,40,36,29,91,76,45,30.17,29.97,20,5,26,0.05
2013-5-4,48,43,37,43,38,34,91,82,68,30.00,29.89,13,3,23,0.00
2013-5-5,67,50,33,47,40,31,94,71,41,30.09,29.97,16,4,21,0.01
2013-5-6,72,59,48,55,50,45,90,72,47,30.06,29.96,14,3,18,0.01
2013-5-7,78,63,47,59,53,45,94,73,40,30.08,29.96,8,1,11,0.17
2013-5-8,82,68,52,60,56,50,94,69,39,30.05,29.92,11,2,15,0.03
2013-5-9,81,69,62,63,59,52,91,73,39,30.05,29.91,12,2,15,0.00
2013-5-10,79,69,61,65,59,54,93,74,45,30.02,29.89,14,3,17,0.17
2013-5-11,79,66,51,55,49,34,92,59,34,30.17,30.02,17,4,24,0.00
2013-5-12,72,58,41,51,40,30,90,57,28,30.28,30.13,10,2,12,0.00
2013-5-13,84,64,46,59,49,42,91,63,26,30.22,30.04,13,2,16,0.00
2013-5-14,88,70,51,61,54,49,93,64,29,30.10,29.96,11,2,17,0.00
2013-5-15,79,66,54,68,61,52,93,83,60,30.05,29.90,8,1,9,0.29
2013-5-16,68,65,63,64,62,58,94,88,76,29.92,29.83,10,2,15,0.45
2013-5-17,83,72,63,68,64,60,95,78,48,29.92,29.84,9,1,9,0.20
2013-5-18,86,76,68,74,70,65,92,81,64,29.94,29.83,11,2,13,0.00
2013-5-19,88,78,68,71,68,63,94,72,46,29.87,29.72,12,3,23,0.00
2013-5-20,84,76,64,73,68,61,90,75,63,29.96,29.71,17,2,28,0.28
2013-5-21,69,64,62,66,61,59,94,92,86,29.95,29.70,16,3,25,1.44
2013-5-22,80,67,58,64,60,56,94,79,49,29.94,29.81,12,2,17,0.12
2013-5-23,78,68,56,69,62,54,94,83,62,30.11,29.93,7,0,8,0.00
2013-5-24,76,67,60,63,56,51,91,67,50,30.29,30.12,16,3,23,0.00
2013-5-25,81,69,56,64,57,50,89,68,52,30.27,30.08,10,2,13,0.00
2013-5-26,86,74,62,69,63,58,91,71,49,30.13,30.00,10,2,18,0.00
2013-5-27,85,76,67,69,65,63,87,71,50,30.03,29.86,11,2,17,0.00
2013-5-28,85,77,68,68,65,62,88,68,48,29.93,29.83,12,2,17,0.00
2013-5-29,85,77,70,68,66,64,83,70,54,29.94,29.80,13,3,18,0.00
2013-5-30,80,73,65,71,66,58,93,80,60,29.90,29.78,18,3,28,0.83
2013-5-31,87,78,68,75,71,66,94,81,61,29.85,29.67,10,1,16,0.23
2013-6-1,79,69,64,73,65,62,94,88,69,29.95,29.75,16,2,20,1.03
2013-6-2,76,66,56,62,58,54,95,76,52,30.02,29.95,11,2,15,0.00
2013-6-3,80,66,53,63,57,51,94,74,43,30.06,29.91,8,1,11,0.00
2013-6-4,82,70,60,66,61,57,92,75,53,30.03,29.90,14,2,17,0.00
2013-6-5,82,71,62,69,64,60,93,81,58,30.02,29.82,16,2,22,0.01
2013-6-6,78,70,61,66,62,59,94,75,59,29.91,29.83,12,2,16,0.00
2013-6-7,81,69,57,61,56,48,94,67,35,29.96,29.87,13,2,16,0.00
2013-6-8,84,70,55,61,57,51,94,68,38,29.97,29.85,9,1,11,0.00
2013-6-9,86,72,62,69,62,52,91,74,33,29.93,29.82,14,2,18,0.00
2013-6-10,92,76,59,73,64,57,93,70,37,29.94,29.86,14,2,21,0.00
2013-6-11,95,80,64,73,67,62,94,70,37,30.01,29.91,11,1,15,0.00
2013-6-12,73,70,68,70,67,66,94,92,86,30.00,29.94,2,0,3,0.00
2013-6-13,95,82,70,77,72,67,94,72,50,29.99,29.87,7,1,16,0.00
2013-6-14,89,79,71,72,68,65,87,70,52,30.05,29.93,8,2,15,0.00
2013-6-15,88,78,67,73,67,63,91,70,45,30.03,29.92,12,2,16,0.00
2013-6-16,87,75,69,76,70,63,93,83,63,30.04,29.86,29,2,41,1.11
2013-6-17,82,73,67,72,68,65,95,87,62,29.97,29.85,11,1,16,0.61
2013-6-18,86,75,65,73,67,63,94,78,52,30.01,29.90,8,1,11,0.00
2013-6-19,88,75,62,71,66,60,95,75,44,30.05,29.95,11,2,15,0.00
2013-6-20,90,79,65,74,69,63,94,74,49,30.09,29.99,12,2,15,0.00
2013-6-21,92,82,73,76,72,68,89,73,46,30.10,29.99,10,2,15,0.00
2013-6-22,92,81,72,76,72,67,93,74,46,30.08,29.94,10,2,20,0.00
2013-6-23,92,81,70,76,70,67,91,72,48,30.03,29.93,10,1,12,0.00
2013-6-24,92,81,71,75,70,68,91,72,48,30.07,29.95,9,1,12,0.00
2013-6-25,91,81,73,75,70,66,89,70,47,30.01,29.87,11,2,16,0.00
2013-6-26,94,83,71,78,72,69,93,73,50,29.93,29.83,12,2,16,0.00
2013-6-27,97,85,72,79,74,70,94,73,43,29.95,29.84,10,1,16,0.00
2013-6-28,95,85,75,78,70,58,91,64,31,29.90,29.78,17,4,23,0.00
2013-6-29,90,77,65,68,58,50,90,57,28,29.85,29.75,20,4,25,0.00
2013-6-30,82,73,64,62,59,56,82,62,43,29.92,29.79,16,3,21,0.01
2013-7-1,86,74,61,63,56,48,90,57,30,30.00,29.91,17,3,22,0.00
2013-7-2,84,70,56,62,54,48,92,61,32,30.06,29.98,19,2,26,0.00
2013-7-3,86,70,54,62,54,44,93,63,25,30.11,29.98,10,1,12,0.00
2013-7-4,89,74,58,63,57,49,90,58,27,30.06,29.94,9,1,9,0.00
2013-7-5,90,76,59,66,58,51,90,58,28,30.05,29.92,9,0,11,0.00
2013-7-6,91,78,66,69,63,52,90,63,27,30.02,29.92,10,1,13,0.00
2013-7-7,93,80,67,72,67,62,91,66,38,30.05,29.96,8,0,11,0.00
2013-7-8,94,82,71,74,69,63,90,67,38,30.10,30.00,11,1,13,0.00
2013-7-9,96,83,70,73,69,65,92,66,38,30.11,29.96,10,1,16,0.00
2013-7-10,101,82,70,73,70,64,93,71,34,30.02,29.85,16,2,23,0.18
2013-7-11,97,82,70,78,70,62,95,71,33,29.98,29.89,9,1,15,0.00
2013-7-12,90,79,68,69,64,60,84,60,41,30.07,29.95,12,2,15,0.00
2013-7-13,87,74,57,67,60,55,92,65,39,30.06,29.95,8,1,9,0.00
2013-7-14,90,77,61,66,61,54,91,61,31,30.04,29.95,12,2,17,0.00
2013-7-15,92,82,73,71,67,64,81,63,40,30.16,30.02,15,3,18,0.00
2013-7-16,94,82,70,73,69,65,92,67,41,30.24,30.14,15,2,18,0.00
2013-7-17,96,82,69,72,67,60,93,64,32,30.30,30.15,13,2,17,0.00
2013-7-18,98,81,68,71,66,57,92,67,28,30.20,29.98,16,2,21,0.40
2013-7-19,91,75,70,75,70,66,93,84,54,30.06,29.94,22,1,30,0.02
2013-7-20,90,78,70,73,70,65,94,77,45,29.99,29.84,11,2,15,0.93
2013-7-21,88,79,71,75,71,67,91,78,58,29.94,29.84,10,1,11,0.00
2013-7-22,92,78,70,75,69,63,94,76,49,29.97,29.83,26,2,33,0.43
2013-7-23,96,80,70,79,72,68,94,79,49,29.96,29.78,21,2,25,0.27
2013-7-24,90,78,70,72,69,65,93,76,45,30.00,29.81,12,2,17,0.46
2013-7-25,85,77,70,72,69,66,94,78,61,30.08,29.98,10,1,12,0.00
2013-7-26,73,70,67,68,66,64,92,87,81,30.08,29.97,8,1,12,0.40
2013-7-27,88,74,64,72,65,57,95,75,37,30.02,29.92,10,2,12,0.00
2013-7-28,86,74,63,68,64,59,92,72,49,30.04,29.96,12,1,12,0.00
2013-7-29,88,78,67,75,69,64,90,76,61,30.10,29.99,12,2,15,0.00
2013-7-30,86,80,75,76,73,69,92,80,63,30.06,29.98,8,1,12,0.02
2013-7-31,91,79,74,78,74,71,94,85,62,30.05,29.95,14,1,21,1.04
2013-8-1,90,79,70,76,71,66,95,78,47,30.07,29.95,9,1,11,0.00
2013-8-2,89,79,70,78,72,67,91,81,69,30.01,29.88,10,2,13,0.00
2013-8-3,86,78,70,77,73,68,93,85,64,30.12,29.91,20,1,26,0.53
2013-8-4,86,77,73,76,72,71,93,85,68,30.11,30.02,9,1,13,0.10
2013-8-5,91,81,74,80,75,71,93,83,67,30.05,29.85,6,1,9,0.01
2013-8-6,94,85,76,79,76,72,93,77,55,29.92,29.80,10,2,15,0.00
2013-8-7,92,84,75,78,75,72,92,75,55,29.92,29.81,12,2,17,0.00
2013-8-8,93,80,70,78,73,66,94,79,53,29.96,29.81,18,2,25,2.24
2013-8-9,88,77,71,77,72,69,94,85,63,30.03,29.92,8,1,17,0.37
2013-8-10,89,78,72,77,72,69,93,83,60,30.08,29.98,9,1,13,0.46
2013-8-11,88,78,73,76,73,70,93,83,64,30.09,30.00,7,1,11,0.00
2013-8-12,90,77,71,78,72,69,94,86,58,30.03,29.96,24,1,29,0.03
2013-8-13,83,73,70,74,70,67,94,90,71,30.05,29.94,19,1,24,1.89
2013-8-14,82,72,62,68,63,56,95,75,46,30.12,30.02,10,2,13,0.01
2013-8-15,79,67,55,64,58,54,94,74,47,30.14,30.00,9,1,12,0.00
2013-8-16,76,66,58,66,60,56,94,81,53,30.11,30.04,7,1,9,0.00
2013-8-17,83,69,58,67,61,56,94,78,46,30.11,30.02,11,1,13,0.00
2013-8-18,85,73,62,69,65,60,94,77,52,30.13,30.04,10,1,13,0.00
2013-8-19,86,74,62,72,65,60,95,78,48,30.13,29.99,9,1,11,0.00
2013-8-20,88,75,64,70,65,57,95,75,36,30.10,30.00,9,1,11,0.00
2013-8-21,91,76,64,74,67,60,94,75,36,30.12,30.03,6,1,8,0.00
2013-8-22,92,78,66,75,69,64,94,75,43,30.11,29.99,8,1,12,0.00
2013-8-23,93,79,67,76,70,65,94,76,41,30.07,29.97,9,1,11,0.00
2013-8-24,92,80,68,75,71,66,94,76,48,30.14,30.04,9,1,11,0.00
2013-8-25,92,80,71,76,71,68,94,77,49,30.21,30.11,12,1,15,0.00
2013-8-26,91,80,70,74,70,66,94,76,47,30.22,30.08,9,1,12,0.00
2013-8-27,91,78,65,74,68,63,94,75,42,30.14,30.01,7,1,9,0.00
2013-8-28,94,79,67,75,69,65,94,74,42,30.09,29.99,8,1,11,0.00
2013-8-29,95,80,68,77,71,66,94,75,45,30.08,29.96,8,1,11,0.00
2013-8-30,96,82,70,79,71,67,94,74,42,30.01,29.88,10,1,12,0.00
2013-8-31,98,82,70,75,71,66,94,72,38,29.92,29.80,9,1,12,0.00
2013-9-1,95,80,69,76,70,67,94,75,41,29.88,29.76,9,1,12,0.00
2013-9-6,91,77,67,69,63,57,84,65,33,30.02,30.00,2,0,5,0.01
2013-9-7,96,78,64,73,65,58,94,69,29,30.05,29.92,5,1,9,0.00
2013-9-8,96,79,65,75,67,61,93,70,33,29.99,29.87,9,1,12,0.00
2013-9-9,97,80,66,70,66,61,93,66,32,30.01,29.91,8,1,9,0.00
2013-9-10,94,78,63,72,65,61,93,68,34,30.13,29.99,9,1,12,0.00
2013-9-11,95,79,69,70,68,63,90,70,36,30.14,30.03,15,1,21,0.00
2013-9-12,92,77,67,74,70,65,94,80,48,30.08,29.95,14,1,18,0.00
2013-9-13,87,75,61,69,59,50,94,62,36,30.07,29.93,11,2,15,0.01
2013-9-14,81,66,51,57,52,49,94,65,33,30.09,29.98,12,2,17,0.00
2013-9-15,88,70,53,66,55,49,88,63,34,30.09,29.99,10,1,12,0.00
2013-9-16,90,76,62,69,63,59,89,68,41,30.16,30.04,11,1,13,0.00
2013-9-17,91,77,63,67,64,61,93,66,39,30.15,29.98,11,2,13,0.00
2013-9-18,92,79,71,69,66,63,84,65,44,30.05,29.93,10,1,15,0.00
2013-9-19,89,77,71,74,69,65,94,78,54,30.03,29.89,24,1,35,1.10
2013-9-20,74,70,61,72,66,56,94,88,66,29.95,29.85,11,1,16,1.04
2013-9-21,81,65,51,57,50,40,94,66,24,29.99,29.88,12,2,16,0.01
2013-9-22,79,61,46,56,50,44,94,72,31,30.00,29.85,10,1,12,0.00
2013-9-23,80,64,49,58,53,47,94,71,40,29.95,29.81,12,2,16,0.01
2013-9-24,85,68,55,62,56,50,94,70,32,29.90,29.79,12,2,18,0.00
2013-9-25,84,67,54,63,58,52,94,76,40,29.88,29.79,11,2,13,0.00
2013-9-26,86,69,54,64,58,53,95,72,36,29.97,29.86,10,1,13,0.00
2013-9-27,87,71,57,66,60,55,95,71,39,30.04,29.92,12,2,15,0.00
2013-9-28,86,73,65,69,66,61,94,79,51,30.02,29.91,13,2,23,0.83
2013-9-29,78,71,66,69,66,63,94,86,65,30.02,29.91,8,1,9,0.02
2013-9-30,82,73,66,69,66,63,92,80,55,29.94,29.85,10,2,15,0.00
2013-10-1,84,75,70,72,69,67,94,81,60,30.00,29.89,11,1,13,0.00
2013-10-2,82,75,70,73,69,67,91,83,67,30.05,29.92,10,1,15,0.01
2013-10-3,85,74,68,74,68,65,92,82,59,29.98,29.87,8,1,13,0.04
2013-10-4,88,76,68,72,67,61,95,76,42,29.95,29.87,10,2,13,0.01
2013-10-5,80,65,52,73,62,50,94,90,73,30.06,29.90,16,2,23,0.44
2013-10-6,68,56,48,52,48,44,93,76,45,30.04,29.95,14,3,21,0.05
2013-10-7,76,57,42,52,45,37,95,71,26,30.13,30.02,13,2,16,0.00
2013-10-8,74,56,43,53,47,41,95,75,39,30.18,30.05,11,1,13,0.01
2013-10-9,76,58,42,54,48,41,94,74,35,30.14,30.03,9,1,12,0.00
2013-10-10,78,61,46,59,53,44,95,77,44,30.13,29.96,10,1,13,0.00
2013-10-11,81,66,55,66,60,53,94,80,57,30.01,29.88,13,2,17,0.01
2013-10-12,81,72,64,69,64,60,93,78,58,30.13,29.93,9,2,11,0.10
2013-10-13,79,67,58,61,58,54,93,74,47,30.28,30.13,12,1,17,0.00
2013-10-14,69,61,50,61,56,48,93,83,61,30.24,30.02,11,1,13,0.17
2013-10-15,69,65,58,66,62,56,94,93,88,30.04,29.91,8,1,9,1.39
2013-10-16,63,56,52,56,51,48,94,84,66,30.10,29.98,15,2,18,0.35
2013-10-17,67,54,44,51,47,43,94,79,48,30.09,29.97,12,1,15,0.02
2013-10-18,67,53,40,56,48,38,95,86,50,30.07,29.97,9,0,9,0.11
2013-10-19,60,50,40,53,43,37,94,77,50,30.15,30.00,11,3,16,0.08
2013-10-20,70,50,35,47,41,33,94,75,35,30.09,29.92,9,1,12,0.01
2013-10-21,60,52,44,53,48,42,94,87,71,30.10,29.99,10,0,15,0.28
2013-10-22,67,49,39,51,44,37,95,84,49,30.14,29.94,12,1,17,0.00
2013-10-23,66,50,38,46,40,33,94,74,38,30.18,30.03,8,1,9,0.01
2013-10-24,65,50,39,48,39,32,94,69,35,30.40,30.09,13,1,16,0.00
2013-10-25,56,43,32,36,32,26,93,69,33,30.53,30.29,13,2,17,0.00
2013-10-26,60,49,39,51,42,34,92,78,56,30.29,30.10,5,0,7,0.00
2013-10-27,63,54,46,56,51,44,94,87,75,30.12,30.02,6,0,8,0.00
2013-10-28,65,59,48,58,55,47,95,87,75,30.19,30.05,7,1,11,0.00
2013-10-29,73,65,57,67,61,54,91,87,77,30.18,30.03,8,1,11,0.03
2013-10-30,72,66,62,66,63,60,94,88,73,30.06,29.88,12,1,16,0.32
2013-10-31,79,64,48,67,57,45,94,81,36,29.88,29.50,23,3,38,0.05
2013-11-1,73,54,40,53,44,38,95,74,33,29.99,29.81,13,1,20,0.01
2013-11-2,62,50,37,43,38,35,92,69,39,30.24,29.99,16,3,21,0.00
2013-11-3,62,47,32,42,38,30,94,72,43,30.28,30.06,13,2,17,0.00
2013-11-4,57,52,48,51,46,40,93,80,66,30.21,30.11,10,2,15,0.25
2013-11-5,62,58,53,59,55,51,94,92,87,30.19,30.00,9,1,12,1.13
2013-11-6,63,52,35,62,49,33,95,88,70,30.36,29.93,15,4,20,1.10
2013-11-7,62,42,30,44,37,29,95,82,47,30.49,30.33,9,1,11,0.00
2013-11-8,64,47,33,45,39,31,95,77,43,30.38,30.16,11,1,12,0.00
2013-11-9,65,52,42,50,45,40,93,80,52,30.28,30.15,8,0,9,0.02
2013-11-10,66,53,43,51,45,39,94,77,40,30.37,30.28,10,1,12,0.00
2013-11-11,69,53,39,51,45,37,94,77,46,30.30,30.17,8,1,11,0.00
2013-11-12,59,42,25,53,25,6,89,56,19,30.71,30.26,18,4,26,0.00
2013-11-13,48,31,20,25,21,16,90,70,31,30.72,30.40,9,1,12,0.00
2013-11-14,54,40,23,38,27,20,90,64,35,30.40,30.08,12,1,17,0.02
2013-11-15,53,48,43,50,43,35,93,83,69,30.09,29.94,9,2,13,0.05
2013-11-16,72,63,53,66,58,50,93,82,60,29.95,29.69,11,2,16,0.75
2013-11-17,81,67,43,68,52,30,94,64,18,30.08,29.63,19,3,33,0.01
2013-11-18,69,50,36,41,33,17,89,59,15,30.25,30.08,10,1,13,0.00
2013-11-19,57,46,38,38,32,27,89,61,34,30.30,30.14,16,2,20,0.00
2013-11-20,60,50,40,40,32,29,68,52,35,30.16,29.97,12,3,17,0.00
2013-11-21,57,55,51,54,47,37,94,76,49,30.17,30.03,9,2,12,0.20
2013-11-22,56,46,39,54,41,35,94,83,71,30.48,30.17,12,3,16,0.07
2013-11-23,47,40,31,36,25,10,87,58,28,30.63,30.46,16,4,21,0.00
2013-11-24,33,29,24,18,13,9,67,51,40,30.69,30.40,10,2,13,0.00
2013-11-25,34,32,29,32,25,14,90,77,48,30.40,30.18,16,2,18,0.11
2013-11-26,52,40,34,35,29,19,92,68,41,30.28,30.05,23,6,30,0.00
2013-11-27,43,31,21,20,14,7,86,51,24,30.43,30.28,16,4,23,0.00
2013-11-28,51,31,17,26,20,14,89,69,32,30.47,30.35,11,1,15,0.00
2013-11-29,57,36,21,32,26,18,91,72,31,30.54,30.37,8,1,11,0.01
2013-11-30,59,40,26,43,33,24,93,77,49,30.37,30.17,7,1,9,0.00
2013-12-1,58,51,40,49,45,38,92,82,70,30.18,29.89,4,0,6,0.00
2013-12-2,64,51,42,53,46,40,94,86,63,29.89,29.68,7,1,9,0.00
2013-12-3,57,50,38,53,48,37,95,93,86,29.71,29.58,11,2,13,0.00
2013-12-4,69,57,45,56,50,39,94,79,54,29.90,29.61,15,3,17,0.01
2013-12-5,45,36,31,40,31,27,92,85,66,30.22,29.90,13,3,16,1.24
2013-12-6,31,26,23,29,23,19,91,87,83,30.52,30.16,7,0,12,0.15
2013-12-7,27,22,13,21,17,10,88,80,68,30.63,30.33,0,0,1,0.19
2013-12-8,29,26,23,27,24,19,92,89,83,30.34,30.06,0,0,0,0.01
2013-12-9,33,30,25,28,26,22,92,87,76,30.33,30.18,5,0,7,0.13
2013-12-10,31,27,20,26,23,18,92,86,80,30.49,30.31,10,2,12,0.09
2013-12-11,38,28,23,34,26,20,94,92,85,30.60,30.35,8,1,8,0.13
2013-12-12,39,27,17,28,22,14,93,83,56,30.64,30.35,6,1,8,0.14
2013-12-13,39,34,25,34,30,23,93,88,70,30.34,29.89,8,2,12,0.77
2013-12-14,42,37,33,39,33,27,94,84,77,30.24,29.85,15,4,18,0.02
2013-12-15,48,33,24,34,27,22,92,80,53,30.32,30.18,10,2,12,0.01
2013-12-16,61,37,24,39,30,22,93,79,39,30.21,30.09,10,1,12,0.00
2013-12-17,65,41,25,43,30,23,93,72,24,30.31,30.16,12,2,15,0.01
2013-12-18,61,42,27,39,32,24,91,72,42,30.30,30.03,11,2,13,0.00
2013-12-19,61,52,36,55,46,33,92,80,65,30.03,29.79,11,2,17,0.00
2013-12-20,71,54,38,61,50,36,93,86,70,29.88,29.74,13,2,18,0.27
2013-12-21,45,40,37,44,39,35,95,94,92,29.78,29.49,15,3,20,3.15
2013-12-22,39,35,32,37,30,24,92,81,70,30.35,29.75,15,6,21,0.00
2013-12-23,38,32,26,26,24,22,86,72,61,30.57,30.35,10,3,13,0.00
2013-12-24,38,28,18,24,21,16,90,74,51,30.58,30.36,13,4,18,0.00
2013-12-25,47,33,25,35,27,21,92,79,57,30.40,30.31,12,2,13,0.00
2013-12-26,49,31,20,36,26,18,94,83,47,30.46,30.34,8,0,9,0.01
2013-12-27,56,34,21,36,27,18,92,78,32,30.47,30.34,8,0,8,0.00
2013-12-28,51,35,24,37,29,22,93,82,55,30.34,29.99,7,1,9,0.01
2013-12-29,51,37,29,41,31,20,93,78,66,30.26,29.98,14,4,17,0.02
2013-12-30,34,30,23,25,21,18,89,71,60,30.39,30.24,8,1,11,0.00
2013-12-31,51,32,18,30,23,15,90,73,38,30.43,30.24,9,1,13,0.00
2014-1-1,53,40,24,38,30,22,90,71,50,30.24,29.91,17,3,18,0.00
2014-1-2,45,30,22,30,16,8,72,57,39,30.49,30.02,18,7,25,0.00